Time;durP1;ratioP1;P1;durP2;ratioP2;P2;SDS_P1;SDS_P2;PMS_P1;PMS_P2;Temp;Humidity;BMP_temperature;BMP_pressure;BME280_temperature;BME280_humidity;BME280_pressure;Samples;Min_cycle;Max_cycle;Signal;HPM_P1;HPM_P2
2023/12/24 00:02:03;;;;;;;4.55;3.67;;;;;;;9.43;99.35;100764.81;5111690;28;20108;-59
2023/12/24 00:04:28;;;;;;;9.77;3.42;;;;;;;9.46;98.78;100755.81;5092713;28;20077;-58
2023/12/24 00:06:53;;;;;;;9.98;3.80;;;;;;;9.45;98.99;100778.03;5110982;28;20024;-58
2023/12/24 00:09:19;;;;;;;7.18;3.40;;;;;;;9.60;97.57;100769.13;5092749;28;20015;-58
2023/12/24 00:11:44;;;;;;;5.65;3.45;;;;;;;9.52;97.56;100753.66;5111126;28;20448;-59
2023/12/24 00:14:10;;;;;;;8.90;3.13;;;;;;;9.46;98.46;100758.47;5111530;28;20026;-59
2023/12/24 00:16:39;;;;;;;7.13;3.25;;;;;;;9.44;98.20;100770.97;5111844;28;20055;-58
2023/12/24 00:19:04;;;;;;;7.47;3.30;;;;;;;9.43;98.29;100780.75;5092683;28;20092;-58
2023/12/24 00:21:30;;;;;;;11.45;3.88;;;;;;;9.41;96.95;100774.69;5097277;28;20412;-58
2023/12/24 00:23:55;;;;;;;3.53;3.00;;;;;;;9.58;96.76;100783.44;5110741;28;20043;-58
2023/12/24 00:26:25;;;;;;;9.30;3.83;;;;;;;9.50;95.90;100775.91;5110801;28;20024;-58
2023/12/24 00:28:51;;;;;;;5.25;3.25;;;;;;;9.51;95.19;100786.47;5092978;28;20019;-59
2023/12/24 00:31:17;;;;;;;7.95;3.60;;;;;;;9.64;94.40;100773.28;5111245;28;20504;-58
2023/12/24 00:33:42;;;;;;;5.05;4.20;;;;;;;9.44;94.83;100768.31;5110993;28;20027;-59
2023/12/24 00:36:08;;;;;;;5.05;3.72;;;;;;;9.50;94.74;100763.53;5092472;28;20081;-58
2023/12/24 00:38:33;;;;;;;3.42;3.13;;;;;;;9.51;94.63;100759.91;5092136;28;20024;-58
2023/12/24 00:41:01;;;;;;;6.40;3.60;;;;;;;9.47;94.86;100753.09;5110809;28;20134;-59
2023/12/24 00:43:26;;;;;;;3.38;3.05;;;;;;;9.49;93.90;100729.09;5113128;28;20501;-59
2023/12/24 00:45:51;;;;;;;3.80;2.85;;;;;;;9.54;93.75;100730.53;5110711;28;20055;-58
2023/12/24 00:48:17;;;;;;;6.30;2.60;;;;;;;9.46;93.66;100718.66;5110722;28;20448;-58
2023/12/24 00:50:42;;;;;;;5.05;3.08;;;;;;;9.50;93.21;100713.09;5110945;28;20024;-58
2023/12/24 00:53:08;;;;;;;5.60;2.90;;;;;;;9.63;92.29;100699.91;5092364;28;20482;-58
2023/12/24 00:55:35;;;;;;;3.42;2.90;;;;;;;9.46;93.51;100685.00;5092702;28;20027;-59
2023/12/24 00:58:01;;;;;;;3.00;2.60;;;;;;;9.47;92.81;100683.19;5110592;28;20055;-58
2023/12/24 01:00:26;;;;;;;4.13;2.60;;;;;;;9.47;93.15;100675.22;5110488;28;20062;-58
2023/12/24 01:02:52;;;;;;;5.22;2.67;;;;;;;9.46;92.70;100663.75;5111104;28;20051;-58
2023/12/24 01:05:18;;;;;;;6.35;2.78;;;;;;;9.60;91.71;100656.75;5095096;28;20466;-59
2023/12/24 01:07:43;;;;;;;5.05;2.40;;;;;;;9.58;92.10;100645.38;5110549;28;20026;-59
2023/12/24 01:10:09;;;;;;;5.57;2.85;;;;;;;9.48;92.94;100622.06;5110334;28;20031;-59
2023/12/24 01:12:37;;;;;;;4.18;2.58;;;;;;;9.58;92.38;100629.44;5110656;28;20016;-58
2023/12/24 01:15:03;;;;;;;9.98;2.83;;;;;;;9.54;92.39;100626.13;5110455;28;20095;-58
2023/12/24 01:17:28;;;;;;;2.63;2.13;;;;;;;9.59;92.47;100625.81;5110352;28;20030;-59
2023/12/24 01:19:56;;;;;;;7.97;3.35;;;;;;;9.50;92.54;100621.94;5092319;28;20024;-58
2023/12/24 01:22:21;;;;;;;2.63;2.15;;;;;;;9.50;93.34;100621.94;5093419;28;20359;-58
2023/12/24 01:24:49;;;;;;;8.35;3.17;;;;;;;9.63;92.52;100620.25;5091723;28;20030;-58
2023/12/24 01:27:14;;;;;;;4.75;2.80;;;;;;;9.58;93.73;100624.13;5110185;28;20031;-58
2023/12/24 01:29:39;;;;;;;13.73;3.75;;;;;;;9.51;94.15;100618.38;5111806;28;20539;-58
2023/12/24 01:32:05;;;;;;;9.70;3.05;;;;;;;9.58;94.18;100635.59;5114260;28;20114;-59
2023/12/24 01:34:30;;;;;;;7.28;2.75;;;;;;;9.69;93.75;100617.19;5093462;28;20031;-58
2023/12/24 01:36:56;;;;;;;3.83;2.40;;;;;;;9.60;94.57;100619.59;5092251;28;20060;-58
2023/12/24 01:39:21;;;;;;;9.93;2.47;;;;;;;9.60;94.58;100623.09;5113367;28;20022;-58
2023/12/24 01:41:47;;;;;;;5.22;2.83;;;;;;;9.60;94.66;100628.41;5114004;28;20145;-58
2023/12/24 01:44:15;;;;;;;4.60;2.38;;;;;;;9.66;95.21;100635.97;5113600;28;20019;-58
2023/12/24 01:46:40;;;;;;;5.60;2.45;;;;;;;9.71;94.16;100623.28;5114233;28;20019;-58
2023/12/24 01:49:07;;;;;;;6.05;2.05;;;;;;;9.62;95.72;100641.56;5113654;28;20495;-58
2023/12/24 01:51:34;;;;;;;5.18;2.85;;;;;;;9.74;95.98;100646.13;5114370;28;20023;-58
2023/12/24 01:53:59;;;;;;;9.48;2.75;;;;;;;9.56;98.02;100650.78;5114552;27;20093;-58
2023/12/24 01:56:26;;;;;;;4.47;2.17;;;;;;;9.62;97.74;100625.63;5114689;27;20028;-58
2023/12/24 01:58:52;;;;;;;8.10;3.80;;;;;;;9.52;98.59;100641.28;5111070;27;20023;-59
2023/12/24 02:01:18;;;;;;;4.97;2.80;;;;;;;9.70;97.93;100644.59;5096725;27;20032;-59
2023/12/24 02:03:44;;;;;;;5.05;2.85;;;;;;;9.73;98.16;100649.72;5113248;27;20598;-58
2023/12/24 02:06:14;;;;;;;14.32;2.80;;;;;;;9.67;99.12;100645.66;5095528;28;20015;-58
2023/12/24 02:08:41;;;;;;;3.28;2.65;;;;;;;9.82;98.43;100643.81;5092369;28;20080;-59
2023/12/24 02:11:07;;;;;;;7.15;2.83;;;;;;;9.60;100.00;100628.41;5095411;28;20028;-58
2023/12/24 02:13:33;;;;;;;7.95;3.13;;;;;;;9.65;100.00;100634.28;5113195;28;20582;-59
2023/12/24 02:16:02;;;;;;;6.45;2.85;;;;;;;9.59;100.00;100633.78;5113807;27;20020;-58
2023/12/24 02:18:28;;;;;;;4.53;3.30;;;;;;;9.59;100.00;100628.47;5078022;28;20027;-58
2023/12/24 02:21:00;;;;;;;3.95;2.60;;;;;;;9.83;100.00;100637.59;5113231;28;20422;-59
2023/12/24 02:23:26;;;;;;;5.72;2.67;;;;;;;9.57;100.00;100631.25;5109783;28;20047;-59
2023/12/24 02:25:55;;;;;;;4.32;3.25;;;;;;;9.66;100.00;100627.16;5112991;28;20024;-59
2023/12/24 02:28:27;;;;;;;6.47;3.47;;;;;;;9.56;100.00;100621.59;5076121;28;20166;-59
2023/12/24 02:30:58;;;;;;;4.53;3.20;;;;;;;9.58;100.00;100618.81;5092721;28;20047;-58
2023/12/24 02:33:29;;;;;;;4.28;2.92;;;;;;;9.62;100.00;100612.34;5112665;28;20023;-58
2023/12/24 02:35:55;;;;;;;4.30;3.30;;;;;;;9.39;100.00;100605.84;5114283;27;20023;-58
2023/12/24 02:38:21;;;;;;;4.90;2.97;;;;;;;9.53;100.00;100600.53;5093884;28;20011;-58
2023/12/24 02:40:47;;;;;;;9.32;3.70;;;;;;;9.30;100.00;100597.50;5096069;28;20185;-58
2023/12/24 02:43:14;;;;;;;5.25;3.58;;;;;;;9.24;100.00;100592.59;5112734;27;20027;-58
2023/12/24 02:45:44;;;;;;;4.40;3.13;;;;;;;9.31;100.00;100593.03;5111929;27;20038;-59
2023/12/24 02:48:10;;;;;;;5.70;3.17;;;;;;;9.22;100.00;100583.00;5116971;27;20020;-59
2023/12/24 02:50:38;;;;;;;6.28;3.70;;;;;;;9.20;100.00;100579.59;5094640;28;20042;-59
2023/12/24 02:53:03;;;;;;;3.50;2.50;;;;;;;9.24;100.00;100574.00;5094080;28;20024;-59
2023/12/24 02:55:28;;;;;;;8.30;3.22;;;;;;;9.17;100.00;100563.84;5112662;27;20238;-59
2023/12/24 02:57:54;;;;;;;5.78;3.00;;;;;;;9.28;100.00;100572.00;5113979;27;20470;-58
2023/12/24 03:00:19;;;;;;;6.03;3.10;;;;;;;9.19;100.00;100561.97;5112800;27;20015;-59
2023/12/24 03:02:45;;;;;;;7.47;3.25;;;;;;;9.17;100.00;100564.69;5095702;28;20051;-58
2023/12/24 03:05:10;;;;;;;5.53;2.65;;;;;;;9.25;100.00;100572.19;5095658;27;20532;-59
2023/12/24 03:07:35;;;;;;;6.05;3.30;;;;;;;9.18;100.00;100571.75;5094244;28;20058;-59
2023/12/24 03:10:01;;;;;;;7.18;3.10;;;;;;;9.17;100.00;100570.00;5094146;28;20386;-59
2023/12/24 03:12:27;;;;;;;3.40;2.60;;;;;;;9.14;100.00;100567.53;5095081;27;20071;-58
2023/12/24 03:14:52;;;;;;;2.67;2.45;;;;;;;9.23;100.00;100555.50;5113137;27;20019;-58
2023/12/24 03:17:17;;;;;;;3.30;2.42;;;;;;;9.10;100.00;100556.28;5093994;28;20024;-58
2023/12/24 03:19:43;;;;;;;7.07;2.70;;;;;;;9.18;100.00;100545.19;5095517;27;20063;-58
2023/12/24 03:22:08;;;;;;;4.25;2.55;;;;;;;9.15;100.00;100547.16;5113444;27;20024;-59
2023/12/24 03:24:33;;;;;;;4.60;2.70;;;;;;;9.25;100.00;100535.06;5112412;27;20469;-59
2023/12/24 03:26:59;;;;;;;3.83;2.28;;;;;;;9.19;100.00;100538.09;5095406;28;20107;-58
2023/12/24 03:29:24;;;;;;;2.38;2.28;;;;;;;9.09;100.00;100525.41;5111548;28;20542;-59
2023/12/24 03:31:50;;;;;;;2.45;2.30;;;;;;;9.17;100.00;100518.75;5113070;27;20023;-59
2023/12/24 03:34:16;;;;;;;2.22;2.10;;;;;;;9.29;100.00;100520.63;5093410;28;20023;-59
2023/12/24 03:36:41;;;;;;;2.50;2.30;;;;;;;9.30;100.00;100509.09;5112656;27;20036;-58
2023/12/24 03:39:07;;;;;;;2.25;2.15;;;;;;;9.27;100.00;100518.09;5110920;27;20088;-59
2023/12/24 03:41:35;;;;;;;2.65;1.83;;;;;;;9.20;100.00;100499.97;5112269;28;20075;-59
2023/12/24 03:44:01;;;;;;;2.00;1.80;;;;;;;9.23;100.00;100516.56;5096962;28;20080;-58
2023/12/24 03:46:27;;;;;;;2.05;1.95;;;;;;;9.16;100.00;100509.09;5114482;27;20093;-58
2023/12/24 03:48:52;;;;;;;2.10;2.00;;;;;;;9.33;100.00;100507.09;5114829;27;20023;-58
2023/12/24 03:51:18;;;;;;;2.15;1.85;;;;;;;9.21;100.00;100507.88;5111408;27;20023;-58
2023/12/24 03:53:43;;;;;;;2.45;2.22;;;;;;;9.36;100.00;100500.72;5112481;27;20362;-59
2023/12/24 03:56:09;;;;;;;2.50;2.30;;;;;;;9.21;100.00;100486.63;5111827;28;20379;-59
2023/12/24 03:58:35;;;;;;;1.40;1.40;;;;;;;9.37;100.00;100489.16;5094625;28;20050;-59
2023/12/24 04:01:05;;;;;;;2.50;2.35;;;;;;;9.20;100.00;100500.84;5114649;27;20027;-59
2023/12/24 04:03:31;;;;;;;3.15;1.65;;;;;;;9.20;100.00;100499.97;5114943;27;20093;-58
2023/12/24 04:05:56;;;;;;;1.90;1.80;;;;;;;9.21;100.00;100499.91;5094309;28;20043;-58
2023/12/24 04:08:24;;;;;;;1.92;1.83;;;;;;;9.27;100.00;100496.84;5114444;27;20016;-59
2023/12/24 04:10:50;;;;;;;2.00;1.90;;;;;;;9.26;100.00;100489.81;5111745;27;20019;-59
2023/12/24 04:13:15;;;;;;;1.90;1.80;;;;;;;9.28;100.00;100500.34;5093989;28;20462;-59
2023/12/24 04:15:40;;;;;;;1.65;1.65;;;;;;;9.25;100.00;100485.47;5111468;28;20019;-59
2023/12/24 04:18:06;;;;;;;1.90;1.80;;;;;;;9.26;100.00;100492.47;5093028;28;20026;-58
2023/12/24 04:20:31;;;;;;;2.03;1.92;;;;;;;9.23;100.00;100491.81;5111412;28;20144;-59
2023/12/24 04:22:57;;;;;;;1.88;1.77;;;;;;;9.22;100.00;100490.13;5092353;28;20047;-59
2023/12/24 04:25:22;;;;;;;1.80;1.70;;;;;;;9.24;100.00;100478.47;5094672;28;20024;-58
2023/12/24 04:27:48;;;;;;;2.00;1.90;;;;;;;9.25;100.00;100482.81;5115580;28;20023;-59
2023/12/24 04:30:13;;;;;;;1.70;1.60;;;;;;;9.28;100.00;100481.78;5111306;28;20019;-59
2023/12/24 04:32:38;;;;;;;1.58;1.55;;;;;;;9.32;100.00;100476.19;5111332;28;20024;-58
2023/12/24 04:35:05;;;;;;;2.03;1.88;;;;;;;9.12;100.00;100467.78;5110899;28;20031;-58
2023/12/24 04:37:31;;;;;;;1.85;1.75;;;;;;;9.23;100.00;100491.81;5077514;28;20032;-59
2023/12/24 04:39:59;;;;;;;1.63;1.63;;;;;;;9.20;100.00;100479.59;5090506;28;20136;-58
2023/12/24 04:42:27;;;;;;;1.63;1.63;;;;;;;9.32;100.00;100476.19;5115196;28;20087;-58
2023/12/24 04:44:52;;;;;;;2.10;2.00;;;;;;;9.25;100.00;100477.53;5092619;28;20023;-58
2023/12/24 04:47:17;;;;;;;1.95;1.63;;;;;;;9.34;100.00;100478.75;5111006;28;20023;-59
2023/12/24 04:49:43;;;;;;;2.20;2.08;;;;;;;9.21;100.00;100476.03;5111510;28;20030;-59
2023/12/24 04:52:10;;;;;;;1.80;1.70;;;;;;;9.34;100.00;100470.78;5111277;28;20482;-59
2023/12/24 04:54:35;;;;;;;1.67;1.67;;;;;;;9.33;100.00;100482.34;5112131;28;20031;-59
2023/12/24 04:57:01;;;;;;;1.70;1.60;;;;;;;9.28;100.00;100474.66;5093979;28;20024;-59
2023/12/24 04:59:29;;;;;;;1.75;1.70;;;;;;;9.30;100.00;100467.47;5110697;28;20095;-59
2023/12/24 05:01:54;;;;;;;1.70;1.63;;;;;;;9.37;100.00;100461.78;5110840;28;20085;-58
2023/12/24 05:04:20;;;;;;;2.03;1.92;;;;;;;9.31;100.00;100466.50;5113914;27;20023;-58
2023/12/24 05:06:45;;;;;;;1.52;1.52;;;;;;;9.29;100.00;100472.84;5116805;27;20034;-59
2023/12/24 05:09:10;;;;;;;1.52;1.52;;;;;;;9.39;100.00;100462.53;5098422;28;20046;-59
2023/12/24 05:11:39;;;;;;;1.67;1.58;;;;;;;9.31;100.00;100471.81;5098635;27;20024;-59
2023/12/24 05:14:07;;;;;;;1.90;1.80;;;;;;;9.28;100.00;100458.75;5095378;28;20051;-59
2023/12/24 05:16:32;;;;;;;1.98;1.88;;;;;;;9.35;100.00;100466.31;5114579;28;20084;-59
2023/12/24 05:18:58;;;;;;;1.83;1.73;;;;;;;9.39;100.00;100467.84;5098576;28;20012;-58
2023/12/24 05:21:23;;;;;;;2.05;1.95;;;;;;;9.33;100.00;100469.09;5096061;28;20378;-59
2023/12/24 05:23:49;;;;;;;1.80;1.70;;;;;;;9.36;100.00;100474.19;5095526;28;20090;-59
2023/12/24 05:26:14;;;;;;;1.73;1.63;;;;;;;9.32;100.00;100475.31;5096362;28;20535;-58
2023/12/24 05:28:40;;;;;;;1.88;1.77;;;;;;;9.36;100.00;100468.88;5113840;27;20031;-58
2023/12/24 05:31:05;;;;;;;1.70;1.60;;;;;;;9.30;100.00;100462.16;5079149;28;20012;-59
2023/12/24 05:33:30;;;;;;;1.80;1.70;;;;;;;9.30;100.00;100466.63;5115352;27;20099;-59
2023/12/24 05:35:56;;;;;;;1.63;1.52;;;;;;;9.38;100.00;100461.66;5095667;28;20023;-59
2023/12/24 05:38:21;;;;;;;1.75;1.65;;;;;;;9.32;100.00;100470.00;5095383;28;20117;-59
2023/12/24 05:40:47;;;;;;;1.67;1.58;;;;;;;9.41;100.00;100463.25;5095349;28;20490;-59
2023/12/24 05:43:13;;;;;;;1.70;1.60;;;;;;;9.32;100.00;100451.44;5112961;27;20043;-59
2023/12/24 05:45:38;;;;;;;1.98;1.88;;;;;;;9.35;100.00;100447.72;5095854;28;20049;-59
2023/12/24 05:48:04;;;;;;;1.75;1.65;;;;;;;9.39;100.00;100449.25;5113994;27;20043;-59
2023/12/24 05:50:30;;;;;;;1.40;1.40;;;;;;;9.33;100.00;100456.66;5097770;28;20057;-59
2023/12/24 05:52:58;;;;;;;1.60;1.55;;;;;;;9.43;100.00;100450.75;5117300;27;20024;-59
2023/12/24 05:55:23;;;;;;;1.65;1.60;;;;;;;9.39;100.00;100457.22;5113172;28;20049;-59
2023/12/24 05:57:48;;;;;;;1.50;1.50;;;;;;;9.36;100.00;100449.47;5096501;28;20102;-59
2023/12/24 06:00:14;;;;;;;1.50;1.40;;;;;;;9.37;100.00;100448.50;5095386;28;20036;-58
2023/12/24 06:02:42;;;;;;;2.13;2.00;;;;;;;9.37;100.00;100429.91;5113575;28;20027;-58
2023/12/24 06:05:07;;;;;;;1.90;1.80;;;;;;;9.39;100.00;100433.34;5095871;28;20080;-58
2023/12/24 06:07:32;;;;;;;2.40;1.80;;;;;;;9.42;100.00;100443.75;5115156;27;20028;-59
2023/12/24 06:09:58;;;;;;;1.85;1.75;;;;;;;9.40;100.00;100443.00;5097908;28;21729;-59
2023/12/24 06:12:23;;;;;;;1.70;1.60;;;;;;;9.53;100.00;100451.88;5114783;27;20034;-58
2023/12/24 06:14:49;;;;;;;2.00;1.90;;;;;;;9.56;100.00;100454.34;5097394;28;20111;-59
2023/12/24 06:17:14;;;;;;;1.63;1.52;;;;;;;9.49;100.00;100448.53;5114459;27;20032;-59
2023/12/24 06:19:40;;;;;;;1.80;1.73;;;;;;;9.68;100.00;100445.56;5094715;28;20428;-59
2023/12/24 06:22:05;;;;;;;1.75;1.65;;;;;;;9.46;100.00;100443.44;5097248;28;20027;-59
2023/12/24 06:24:31;;;;;;;1.83;1.73;;;;;;;9.42;100.00;100433.97;5115030;27;20034;-58
2023/12/24 06:26:56;;;;;;;1.80;1.70;;;;;;;9.46;100.00;100435.47;5094964;28;20066;-59
2023/12/24 06:29:22;;;;;;;1.60;1.55;;;;;;;9.45;100.00;100431.13;5096547;28;20023;-59
2023/12/24 06:31:47;;;;;;;1.98;1.88;;;;;;;9.50;100.00;100431.69;5113971;27;20032;-59
2023/12/24 06:34:12;;;;;;;1.67;1.58;;;;;;;9.46;100.00;100429.31;5115838;27;20034;-59
2023/12/24 06:36:40;;;;;;;1.90;1.80;;;;;;;9.52;100.00;100423.59;5128653;27;20055;-59
2023/12/24 06:39:06;;;;;;;1.83;1.73;;;;;;;9.45;100.00;100414.34;5112846;28;20032;-59
2023/12/24 06:41:31;;;;;;;1.80;1.70;;;;;;;9.50;100.00;100409.56;5112836;28;20093;-59
2023/12/24 06:43:57;;;;;;;1.63;1.52;;;;;;;9.52;100.00;100413.84;5115491;27;20096;-59
2023/12/24 06:46:24;;;;;;;1.98;1.88;;;;;;;9.53;100.00;100415.56;5076111;27;20042;-59
2023/12/24 06:48:51;;;;;;;1.92;1.77;;;;;;;9.59;100.00;100409.00;5114942;27;20085;-58
2023/12/24 06:51:16;;;;;;;1.73;1.63;;;;;;;9.55;100.00;100408.31;5116535;27;20371;-59
2023/12/24 06:53:44;;;;;;;1.70;1.60;;;;;;;9.59;100.00;100416.06;5095073;28;20038;-59
2023/12/24 06:56:09;;;;;;;1.60;1.60;;;;;;;9.61;100.00;100416.84;5094438;27;20031;-59
2023/12/24 06:58:35;;;;;;;1.58;1.58;;;;;;;9.63;100.00;100415.78;5113403;27;20450;-59
2023/12/24 07:01:03;;;;;;;1.65;1.55;;;;;;;9.61;100.00;100416.84;5093485;28;20027;-58
2023/12/24 07:03:28;;;;;;;1.75;1.65;;;;;;;9.51;100.00;100400.69;5112364;28;20032;-59
2023/12/24 07:05:54;;;;;;;1.90;1.80;;;;;;;9.61;100.00;100393.78;5095852;27;20496;-59
2023/12/24 07:08:22;;;;;;;1.92;1.70;;;;;;;9.61;100.00;100398.25;5094774;28;20028;-59
2023/12/24 07:10:47;;;;;;;1.83;1.70;;;;;;;9.63;100.00;100399.84;5112222;28;20107;-59
2023/12/24 07:13:15;;;;;;;2.58;2.30;;;;;;;9.68;100.00;100403.06;5095113;28;20570;-59
2023/12/24 07:15:42;;;;;;;2.00;1.90;;;;;;;9.63;100.00;100401.66;5112018;27;20062;-59
2023/12/24 07:18:08;;;;;;;3.65;2.60;;;;;;;9.63;100.00;100401.66;5095709;28;20035;-58
2023/12/24 07:20:36;;;;;;;2.10;2.00;;;;;;;9.60;100.00;100408.03;5112338;27;20034;-59
2023/12/24 07:23:02;;;;;;;1.98;1.88;;;;;;;9.64;100.00;100393.59;5111198;28;20708;-59
2023/12/24 07:25:27;;;;;;;1.70;1.60;;;;;;;9.76;100.00;100399.88;5115338;27;20111;-59
2023/12/24 07:27:52;;;;;;;2.33;1.80;;;;;;;9.62;100.00;100400.81;5111222;28;20447;-59
2023/12/24 07:30:18;;;;;;;2.00;1.90;;;;;;;9.62;100.00;100419.41;5111910;28;20110;-59
2023/12/24 07:32:44;;;;;;;1.80;1.70;;;;;;;9.70;100.00;100405.59;5093605;28;20035;-59
2023/12/24 07:35:12;;;;;;;1.80;1.70;;;;;;;9.69;100.00;100410.06;5125016;27;20523;-58
2023/12/24 07:37:40;;;;;;;2.00;1.90;;;;;;;9.72;100.00;100404.56;5112002;28;20102;-59
2023/12/24 07:40:09;;;;;;;2.75;2.55;;;;;;;9.58;100.00;100406.41;5096448;28;21793;-59
2023/12/24 07:42:35;;;;;;;2.03;1.92;;;;;;;9.62;100.00;100419.41;5113767;27;20445;-59
2023/12/24 07:45:03;;;;;;;1.80;1.70;;;;;;;9.60;100.00;100416.00;5096353;27;20102;-59
2023/12/24 07:47:28;;;;;;;1.90;1.65;;;;;;;9.66;100.00;100423.56;5111238;28;20393;-58
2023/12/24 07:49:54;;;;;;;1.63;1.52;;;;;;;9.65;100.00;100421.84;5093064;28;20026;-59
2023/12/24 07:52:19;;;;;;;3.05;2.03;;;;;;;9.64;100.00;100420.13;5115217;27;20031;-59
2023/12/24 07:54:45;;;;;;;2.30;2.10;;;;;;;9.73;100.00;100424.84;5112165;27;20099;-58
2023/12/24 07:57:12;;;;;;;2.00;1.90;;;;;;;9.72;100.00;100422.28;5112903;27;20024;-58
2023/12/24 07:59:38;;;;;;;1.98;1.88;;;;;;;9.81;100.00;100421.69;5113215;27;20027;-58
2023/12/24 08:02:03;;;;;;;1.90;1.80;;;;;;;9.79;100.00;100410.28;5111406;28;20031;-58
2023/12/24 08:04:31;;;;;;;1.75;1.65;;;;;;;9.70;100.00;100413.56;5098749;28;20092;-58
2023/12/24 08:06:56;;;;;;;1.42;1.42;;;;;;;9.76;100.00;100415.81;5096235;28;20492;-58
2023/12/24 08:09:25;;;;;;;1.70;1.60;;;;;;;9.70;100.00;100409.09;5110596;28;20102;-58
2023/12/24 08:11:51;;;;;;;1.10;1.10;;;;;;;9.66;100.00;100401.47;5113702;27;20028;-58
2023/12/24 08:14:16;;;;;;;2.28;2.00;;;;;;;9.68;100.00;100403.06;5076998;28;20072;-58
2023/12/24 08:16:42;;;;;;;1.77;1.67;;;;;;;9.74;100.00;100417.75;5092751;28;20023;-58
2023/12/24 08:19:07;;;;;;;2.33;2.13;;;;;;;9.80;100.00;100421.81;5112276;28;20031;-58
2023/12/24 08:21:35;;;;;;;1.80;1.70;;;;;;;9.74;100.00;100417.75;5093227;28;20023;-58
2023/12/24 08:24:01;;;;;;;2.03;1.92;;;;;;;9.81;100.00;100413.72;5073487;28;20129;-58
2023/12/24 08:26:26;;;;;;;1.67;1.60;;;;;;;9.77;100.00;100415.72;5092348;28;20110;-58
2023/12/24 08:28:52;;;;;;;2.00;1.90;;;;;;;9.76;100.00;100421.13;5110823;28;20089;-58
2023/12/24 08:31:19;;;;;;;1.65;1.55;;;;;;;9.80;100.00;100412.03;5110380;28;20008;-58
2023/12/24 08:33:45;;;;;;;1.70;1.60;;;;;;;9.77;100.00;100410.41;5111132;28;20019;-58
2023/12/24 08:36:13;;;;;;;1.75;1.65;;;;;;;9.86;100.00;100408.94;5092540;28;20027;-58
2023/12/24 08:38:38;;;;;;;1.50;1.50;;;;;;;9.93;100.00;100404.91;5112511;28;20043;-58
2023/12/24 08:41:03;;;;;;;1.80;1.70;;;;;;;9.88;100.00;100411.50;5086008;28;20387;-58
2023/12/24 08:43:29;;;;;;;1.85;1.75;;;;;;;9.83;100.00;100406.50;5074119;28;20043;-58
2023/12/24 08:45:59;;;;;;;1.48;1.48;;;;;;;9.91;100.00;100408.63;5073532;28;20154;-58
2023/12/24 08:48:24;;;;;;;;;;;;;;;9.88;100.00;100404.41;5074528;28;20498;-59
2023/12/24 08:50:49;;;;;;;1.80;1.70;;;;;;;9.85;100.00;100411.69;5074414;28;19912;-59
2023/12/24 08:53:15;;;;;;;1.75;1.65;;;;;;;9.89;100.00;100403.44;5074255;28;20038;-59
2023/12/24 08:55:40;;;;;;;1.75;1.65;;;;;;;9.89;100.00;100390.16;5078250;28;20024;-59
2023/12/24 08:58:08;;;;;;;1.73;1.63;;;;;;;10.08;100.00;100394.19;5076734;28;20023;-59
2023/12/24 09:00:34;;;;;;;1.90;1.80;;;;;;;9.93;100.00;100401.41;5069705;28;20024;-58
2023/12/24 09:03:00;;;;;;;1.63;1.52;;;;;;;9.93;100.00;100399.59;5077992;28;20029;-59
2023/12/24 09:05:25;;;;;;;2.00;1.90;;;;;;;9.97;100.00;100406.44;5076737;28;20080;-59
2023/12/24 09:07:50;;;;;;;1.92;1.83;;;;;;;9.94;100.00;100414.59;5072798;28;20020;-58
2023/12/24 09:10:17;;;;;;;2.08;1.67;;;;;;;9.89;100.00;100414.06;5073455;28;20103;-59
2023/12/24 09:12:42;;;;;;;2.45;2.25;;;;;;;9.91;100.00;100422.78;5075322;28;20463;-59
2023/12/24 09:15:08;;;;;;;2.60;2.40;;;;;;;9.86;100.00;100411.59;5074136;28;20107;-59
2023/12/24 09:17:33;;;;;;;2.13;2.03;;;;;;;9.96;100.00;100436.59;5075655;28;20020;-59
2023/12/24 09:20:01;;;;;;;2.10;2.00;;;;;;;10.00;100.00;100439.91;5072800;28;20055;-59
2023/12/24 09:22:27;;;;;;;2.10;2.00;;;;;;;10.02;100.00;100425.53;5072937;28;20102;-59
2023/12/24 09:24:52;;;;;;;2.38;2.28;;;;;;;10.07;100.00;100414.63;5073293;28;20507;-59
2023/12/24 09:27:17;;;;;;;2.28;2.17;;;;;;;10.04;100.00;100420.13;5073729;28;20028;-59
2023/12/24 09:29:43;;;;;;;1.90;1.80;;;;;;;10.10;100.00;100425.03;5075312;28;20046;-59
2023/12/24 09:32:09;;;;;;;2.15;2.05;;;;;;;10.07;100.00;100421.75;5074135;28;20060;-59
2023/12/24 09:34:34;;;;;;;2.00;1.90;;;;;;;10.14;100.00;100421.19;5072731;28;20074;-59
2023/12/24 09:36:59;;;;;;;1.70;1.60;;;;;;;10.18;100.00;100412.09;5072368;28;20586;-59
2023/12/24 09:39:25;;;;;;;2.65;2.45;;;;;;;10.11;100.00;100394.84;5071730;28;20035;-60
2023/12/24 09:41:53;;;;;;;2.45;2.25;;;;;;;10.07;100.00;100403.13;5095575;28;20051;-59
2023/12/24 09:44:19;;;;;;;1.95;1.85;;;;;;;10.07;100.00;100387.19;5113846;28;20027;-59
2023/12/24 09:46:44;;;;;;;2.10;2.00;;;;;;;10.06;100.00;100390.78;5114157;28;20033;-59
2023/12/24 09:49:10;;;;;;;2.75;2.55;;;;;;;10.19;100.00;100404.97;5113927;27;20030;-59
2023/12/24 09:51:35;;;;;;;2.20;1.90;;;;;;;10.18;100.00;100412.09;5113732;28;20391;-59
2023/12/24 09:54:01;;;;;;;2.40;2.20;;;;;;;10.19;100.00;100412.94;5113058;28;20028;-59
2023/12/24 09:56:27;;;;;;;2.50;2.30;;;;;;;10.15;100.00;100409.63;5093980;28;20024;-59
2023/12/24 09:58:52;;;;;;;2.70;2.47;;;;;;;10.14;100.00;100405.25;5110573;27;20048;-59
2023/12/24 10:01:18;;;;;;;5.15;2.83;;;;;;;10.09;100.00;100396.78;5116255;27;20111;-59
2023/12/24 10:03:43;;;;;;;5.63;4.50;;;;;;;10.15;100.00;100408.78;5095095;27;20113;-59
2023/12/24 10:06:09;;;;;;;5.85;5.25;;;;;;;10.28;100.00;100412.31;5116110;27;20019;-59
2023/12/24 10:08:35;;;;;;;4.05;2.97;;;;;;;10.26;100.00;100410.69;5114967;27;20031;-59
2023/12/24 10:11:20;;;;;;;5.53;4.93;;;;;;;10.28;100.00;100419.44;5095316;28;20023;-59
2023/12/24 10:13:47;;;;;;;9.90;7.65;;;;;;;10.21;100.00;100401.25;5094374;28;20073;-59
2023/12/24 10:16:12;;;;;;;5.63;4.60;;;;;;;10.33;100.00;100402.22;5095262;28;20020;-59
2023/12/24 10:18:48;;;;;;;8.32;4.78;;;;;;;10.39;100.00;100400.97;5094256;28;20084;-59
2023/12/24 10:21:14;;;;;;;6.10;4.47;;;;;;;10.33;100.00;100385.44;5113665;28;20031;-59
2023/12/24 10:23:40;;;;;;;10.95;8.50;;;;;;;10.41;100.00;100405.22;5113025;28;20023;-59
2023/12/24 10:26:08;;;;;;;7.53;5.78;;;;;;;10.39;100.00;100414.25;5095482;28;20027;-59
2023/12/24 10:28:44;;;;;;;8.00;5.00;;;;;;;10.38;100.00;100405.44;5113329;28;20474;-59
2023/12/24 10:31:10;;;;;;;7.53;4.85;;;;;;;10.38;100.00;100413.41;5095479;28;20048;-59
2023/12/24 10:33:41;;;;;;;8.38;4.78;;;;;;;10.46;100.00;100403.06;5094369;28;20066;-59
2023/12/24 10:36:07;;;;;;;7.85;4.55;;;;;;;10.45;100.00;100393.41;5110755;28;20107;-59
2023/12/24 10:38:34;;;;;;;8.15;5.25;;;;;;;10.51;100.00;100396.59;5094083;28;20102;-59
2023/12/24 10:41:00;;;;;;;15.05;9.18;;;;;;;10.42;100.00;100372.34;5093907;28;20102;-59
2023/12/24 10:43:25;;;;;;;16.73;9.55;;;;;;;10.45;100.00;100384.59;5114044;27;20505;-59
2023/12/24 10:45:51;;;;;;;6.63;5.05;;;;;;;10.52;100.00;100383.19;5112780;27;20040;-59
2023/12/24 10:48:16;;;;;;;15.63;8.77;;;;;;;10.54;100.00;100373.28;5091951;28;20059;-59
2023/12/24 10:50:43;;;;;;;15.02;5.65;;;;;;;10.49;100.00;100350.66;5093191;28;20026;-59
2023/12/24 10:53:09;;;;;;;6.57;5.47;;;;;;;10.57;100.00;100369.56;5076699;28;20020;-59
2023/12/24 10:55:36;;;;;;;10.40;4.70;;;;;;;10.67;100.00;100368.78;5112863;28;20031;-59
2023/12/24 10:58:30;;;;;;;13.43;6.65;;;;;;;10.64;100.00;100365.50;5117606;27;20095;-59
2023/12/24 11:01:05;;;;;;;8.32;5.13;;;;;;;10.64;100.00;100362.84;5113585;28;20035;-60
2023/12/24 11:03:42;;;;;;;8.55;4.25;;;;;;;10.65;100.00;100365.41;5115346;27;20080;-59
2023/12/24 11:06:09;;;;;;;8.30;4.68;;;;;;;10.64;100.00;100358.38;5115711;27;20048;-59
2023/12/24 11:08:35;;;;;;;3.97;2.83;;;;;;;10.84;100.00;100377.38;5133395;27;20469;-59
2023/12/24 11:11:06;;;;;;;4.38;3.13;;;;;;;10.78;100.00;100359.22;5115362;27;20160;-59
2023/12/24 11:13:32;;;;;;;2.95;2.65;;;;;;;10.78;100.00;100354.72;5131109;27;20027;-59
2023/12/24 11:16:06;;;;;;;4.32;3.38;;;;;;;10.67;100.00;100347.50;5133385;27;20023;-59
2023/12/24 11:18:48;;;;;;;4.63;4.00;;;;;;;10.66;100.00;100348.47;5109852;28;20016;-58
2023/12/24 11:21:15;;;;;;;5.10;4.25;;;;;;;10.68;100.00;100353.72;5094883;28;20072;-59